createdAt,value
2023-05-03T00:02:20.011Z,100.00
2023-05-03T00:04:48.604Z,100.00
2023-05-03T00:07:18.312Z,100.00
2023-05-03T00:09:46.063Z,100.00
2023-05-03T00:12:13.880Z,100.00
2023-05-03T00:14:41.629Z,100.00
2023-05-03T00:17:09.480Z,100.00
2023-05-03T00:19:37.563Z,100.00
2023-05-03T00:22:05.280Z,100.00
2023-05-03T00:24:34.406Z,100.00
2023-05-03T00:27:02.141Z,100.00
2023-05-03T00:29:29.868Z,100.00
2023-05-03T00:31:57.648Z,100.00
2023-05-03T00:34:25.434Z,100.00
2023-05-03T00:36:53.578Z,100.00
2023-05-03T00:39:21.740Z,100.00
2023-05-03T00:41:50.823Z,100.00
2023-05-03T00:44:18.532Z,100.00
2023-05-03T00:46:46.344Z,100.00
2023-05-03T00:49:14.173Z,100.00
2023-05-03T00:51:43.718Z,100.00
2023-05-03T00:54:12.336Z,100.00
2023-05-03T00:56:51.154Z,100.00
2023-05-03T00:59:21.526Z,100.00
2023-05-03T01:01:50.969Z,100.00
2023-05-03T01:04:19.339Z,100.00
2023-05-03T01:06:56.735Z,100.00
2023-05-03T01:09:34.097Z,100.00
2023-05-03T01:12:12.983Z,100.00
2023-05-03T01:14:52.082Z,100.00
2023-05-03T01:17:29.065Z,100.00
2023-05-03T01:20:02.458Z,100.00
2023-05-03T01:22:38.438Z,100.00
2023-05-03T01:25:10.436Z,100.00
2023-05-03T01:27:45.066Z,100.00
2023-05-03T01:30:14.023Z,100.00
2023-05-03T01:32:52.324Z,100.00
2023-05-03T01:35:27.592Z,100.00
2023-05-03T01:37:57.033Z,100.00
2023-05-03T01:40:28.735Z,100.00
2023-05-03T01:42:57.829Z,100.00
2023-05-03T01:45:26.710Z,100.00
2023-05-03T01:47:54.472Z,100.00
2023-05-03T01:50:22.284Z,100.00
2023-05-03T01:52:52.443Z,100.00
2023-05-03T01:55:20.226Z,100.00
2023-05-03T01:57:49.322Z,100.00
2023-05-03T02:00:17.290Z,100.00
2023-05-03T02:02:45.036Z,100.00
2023-05-03T02:05:13.625Z,100.00
2023-05-03T02:07:41.421Z,100.00
2023-05-03T02:10:14.402Z,100.00
2023-05-03T02:12:42.507Z,100.00
2023-05-03T02:15:13.917Z,100.00
2023-05-03T02:17:43.963Z,100.00
2023-05-03T02:20:12.524Z,100.00
2023-05-03T02:22:40.431Z,100.00
2023-05-03T02:25:08.767Z,100.00
2023-05-03T02:27:36.546Z,100.00
2023-05-03T02:30:05.246Z,100.00
2023-05-03T02:32:34.746Z,100.00
2023-05-03T02:35:03.128Z,100.00
2023-05-03T02:37:30.945Z,100.00
2023-05-03T02:39:58.721Z,100.00
2023-05-03T02:42:26.432Z,100.00
2023-05-03T02:44:54.157Z,100.00
2023-05-03T02:47:22.004Z,100.00
2023-05-03T02:49:51.344Z,100.00
2023-05-03T02:52:19.068Z,100.00
2023-05-03T02:54:49.484Z,100.00
2023-05-03T02:57:17.287Z,100.00
2023-05-03T02:59:45.258Z,100.00
2023-05-03T03:02:13.014Z,100.00
2023-05-03T03:04:40.724Z,100.00
2023-05-03T03:07:09.808Z,100.00
2023-05-03T03:09:37.537Z,100.00
2023-05-03T03:12:06.864Z,100.00
2023-05-03T03:14:34.614Z,100.00
2023-05-03T03:17:02.865Z,100.00
2023-05-03T03:19:30.767Z,100.00
2023-05-03T03:21:58.497Z,100.00
2023-05-03T03:24:27.798Z,100.00
2023-05-03T03:26:55.524Z,100.00
2023-05-03T03:29:23.246Z,100.00
2023-05-03T03:31:50.996Z,100.00
2023-05-03T03:34:18.858Z,100.00
2023-05-03T03:36:46.580Z,100.00
2023-05-03T03:39:14.299Z,100.00
2023-05-03T03:41:43.505Z,100.00
2023-05-03T03:44:11.296Z,100.00
2023-05-03T03:46:39.092Z,100.00
2023-05-03T03:49:08.128Z,100.00
2023-05-03T03:51:36.046Z,100.00
2023-05-03T03:54:03.802Z,100.00
2023-05-03T03:56:31.659Z,100.00
2023-05-03T03:59:00.812Z,100.00
2023-05-03T04:01:28.574Z,100.00
2023-05-03T04:03:56.407Z,100.00
2023-05-03T04:06:24.481Z,100.00
2023-05-03T04:08:52.227Z,100.00
2023-05-03T04:11:21.528Z,100.00
2023-05-03T04:13:49.441Z,100.00
2023-05-03T04:16:18.978Z,100.00
2023-05-03T04:18:46.944Z,100.00
2023-05-03T04:21:14.682Z,100.00
2023-05-03T04:23:42.610Z,100.00
2023-05-03T04:26:23.571Z,100.00
2023-05-03T04:28:58.226Z,100.00
2023-05-03T04:31:28.388Z,100.00
2023-05-03T04:33:56.726Z,100.00
2023-05-03T04:36:25.919Z,100.00
2023-05-03T04:38:53.783Z,100.00
2023-05-03T04:41:21.512Z,100.00
2023-05-03T04:43:49.279Z,100.00
2023-05-03T04:46:18.566Z,100.00
2023-05-03T04:48:47.759Z,100.00
2023-05-03T04:51:15.555Z,100.00
2023-05-03T04:53:43.282Z,100.00
2023-05-03T04:56:11.026Z,100.00
2023-05-03T04:58:38.814Z,100.00
2023-05-03T05:01:07.330Z,100.00
2023-05-03T05:03:35.267Z,100.00
2023-05-03T05:06:04.614Z,100.00
2023-05-03T05:08:32.371Z,100.00
2023-05-03T05:11:00.205Z,100.00
2023-05-03T05:13:28.040Z,100.00
2023-05-03T05:15:55.769Z,100.00
2023-05-03T05:18:23.534Z,100.00
2023-05-03T05:20:51.279Z,100.00
2023-05-03T05:23:20.469Z,100.00
2023-05-03T05:25:48.404Z,100.00
2023-05-03T05:28:16.260Z,100.00
2023-05-03T05:30:43.956Z,100.00
2023-05-03T05:33:11.735Z,100.00
2023-05-03T05:35:39.520Z,100.00
2023-05-03T05:38:07.447Z,100.00
2023-05-03T05:40:36.549Z,100.00
2023-05-03T05:43:04.311Z,100.00
2023-05-03T05:45:32.105Z,100.00
2023-05-03T05:47:59.852Z,100.00
2023-05-03T05:50:27.747Z,100.00
2023-05-03T05:52:55.497Z,100.00
2023-05-03T05:55:23.187Z,100.00
2023-05-03T05:57:52.284Z,100.00
2023-05-03T06:00:21.555Z,100.00
2023-05-03T06:02:50.017Z,100.00
2023-05-03T06:05:18.031Z,100.00
2023-05-03T06:07:45.781Z,100.00
2023-05-03T06:10:13.643Z,100.00
2023-05-03T06:12:41.445Z,100.00
2023-05-03T06:15:11.130Z,100.00
2023-05-03T06:17:38.986Z,100.00
2023-05-03T06:20:11.695Z,100.00
2023-05-03T06:22:39.435Z,100.00
2023-05-03T06:25:08.125Z,100.00
2023-05-03T06:27:36.617Z,100.00
2023-05-03T06:30:05.641Z,100.00
2023-05-03T06:32:34.984Z,100.00
2023-05-03T06:35:03.580Z,100.00
2023-05-03T06:37:31.287Z,100.00
2023-05-03T06:39:59.011Z,100.00
2023-05-03T06:42:27.702Z,100.00
2023-05-03T06:44:55.416Z,100.00
2023-05-03T06:47:23.129Z,100.00
2023-05-03T06:49:52.467Z,100.00
2023-05-03T06:52:20.172Z,100.00
2023-05-03T06:54:47.896Z,100.00
2023-05-03T06:57:15.664Z,100.00
2023-05-03T06:59:43.452Z,100.00
2023-05-03T07:02:11.324Z,100.00
2023-05-03T07:04:39.785Z,100.00
2023-05-03T07:07:09.000Z,100.00
2023-05-03T07:12:09.718Z,100.00
2023-05-03T07:14:37.489Z,100.00
2023-05-03T07:17:05.261Z,100.00
2023-05-03T07:19:33.018Z,100.00
2023-05-03T07:22:02.795Z,100.00
2023-05-03T07:24:31.871Z,100.00
2023-05-03T07:26:59.818Z,100.00
2023-05-03T07:29:28.648Z,100.00
2023-05-03T07:31:56.434Z,100.00
2023-05-03T07:34:24.154Z,100.00
2023-05-03T07:36:52.034Z,100.00
2023-05-03T07:39:19.855Z,100.00
2023-05-03T07:41:49.146Z,100.00
2023-05-03T07:44:16.925Z,100.00
2023-05-03T07:46:44.655Z,100.00
2023-05-03T07:49:12.388Z,100.00
2023-05-03T07:51:41.140Z,100.00
2023-05-03T07:54:09.129Z,100.00
2023-05-03T07:56:36.855Z,100.00
2023-05-03T07:59:10.120Z,100.00
2023-05-03T08:01:38.485Z,100.00
2023-05-03T08:04:06.913Z,100.00
2023-05-03T08:06:36.501Z,100.00
2023-05-03T08:09:04.849Z,100.00
2023-05-03T08:11:32.772Z,100.00
2023-05-03T08:14:00.526Z,100.00
2023-05-03T08:16:29.837Z,100.00
2023-05-03T08:18:57.654Z,100.00
2023-05-03T08:21:26.172Z,99.34
2023-05-03T08:23:54.647Z,100.00
2023-05-03T08:26:24.230Z,95.04
2023-05-03T08:28:52.129Z,95.62
2023-05-03T08:31:19.969Z,92.70
2023-05-03T08:33:49.113Z,91.41
2023-05-03T08:36:16.906Z,94.59
2023-05-03T08:38:44.579Z,88.08
2023-05-03T08:41:20.098Z,85.95
2023-05-03T08:43:53.477Z,91.08
2023-05-03T08:46:21.537Z,87.40
2023-05-03T08:48:52.688Z,80.41
2023-05-03T08:51:21.536Z,78.16
2023-05-03T08:53:49.491Z,67.91
2023-05-03T08:56:25.134Z,65.42
2023-05-03T08:58:53.317Z,74.23
2023-05-03T09:01:21.138Z,67.00
2023-05-03T09:03:53.517Z,68.98
2023-05-03T09:06:23.154Z,68.18
2023-05-03T09:08:50.910Z,69.09
2023-05-03T09:11:22.753Z,65.77
2023-05-03T09:13:51.548Z,68.88
2023-05-03T09:16:24.306Z,65.69
2023-05-03T09:19:00.899Z,58.88
2023-05-03T09:21:28.796Z,64.01
2023-05-03T09:23:56.592Z,60.83
2023-05-03T09:26:31.483Z,60.26
2023-05-03T09:29:00.747Z,55.21
2023-05-03T09:31:29.543Z,54.48
2023-05-03T09:33:57.793Z,60.93
2023-05-03T09:36:27.643Z,49.10
2023-05-03T09:38:56.417Z,49.36
2023-05-03T09:41:31.614Z,50.36
2023-05-03T09:44:02.979Z,53.80
2023-05-03T09:46:32.058Z,52.57
2023-05-03T09:49:01.167Z,49.55
2023-05-03T09:51:31.949Z,53.54
2023-05-03T09:54:00.621Z,48.14
2023-05-03T09:56:28.376Z,49.45
2023-05-03T09:58:56.100Z,45.97
2023-05-03T10:01:25.919Z,43.82
2023-05-03T10:03:58.023Z,42.40
2023-05-03T10:06:27.990Z,41.11
2023-05-03T10:09:06.202Z,40.54
2023-05-03T10:11:36.279Z,44.11
2023-05-03T10:14:06.605Z,42.90
2023-05-03T10:16:38.525Z,37.72
2023-05-03T10:19:12.886Z,39.06
2023-05-03T10:21:55.186Z,42.00
2023-05-03T10:24:24.374Z,39.44
2023-05-03T10:26:53.132Z,37.95
2023-05-03T10:29:49.786Z,41.70
2023-05-03T10:32:34.616Z,41.52
2023-05-03T10:35:05.635Z,40.16
2023-05-03T10:37:36.069Z,40.91
2023-05-03T10:40:11.421Z,42.53
2023-05-03T10:42:46.281Z,43.21
2023-05-03T10:45:25.152Z,40.08
2023-05-03T10:48:20.700Z,43.21
2023-05-03T10:50:51.779Z,47.68
2023-05-03T10:53:40.043Z,44.62
2023-05-03T10:56:10.804Z,46.02
2023-05-03T10:58:39.910Z,42.53
2023-05-03T11:01:10.222Z,44.26
2023-05-03T11:03:54.878Z,46.79
2023-05-03T11:06:31.421Z,46.23
2023-05-03T11:08:59.357Z,45.19
2023-05-03T11:11:28.654Z,46.65
2023-05-03T11:13:56.489Z,44.49
2023-05-03T11:16:24.741Z,44.09
2023-05-03T11:18:53.225Z,41.93
2023-05-03T11:21:22.042Z,43.80
2023-05-03T11:23:49.917Z,44.40
2023-05-03T11:26:18.832Z,43.01
2023-05-03T11:28:47.893Z,40.49
2023-05-03T11:31:15.752Z,42.90
2023-05-03T11:33:43.924Z,39.58
2023-05-03T11:36:13.717Z,39.58
2023-05-03T11:38:41.427Z,40.49
2023-05-03T11:41:15.455Z,43.37
2023-05-03T11:43:43.800Z,42.72
2023-05-03T11:46:14.375Z,41.05
2023-05-03T11:48:45.005Z,39.35
2023-05-03T11:51:13.863Z,40.78
2023-05-03T11:53:42.881Z,43.96
2023-05-03T11:56:14.091Z,43.54
2023-05-03T11:58:52.092Z,42.91
2023-05-03T12:01:22.762Z,43.77
2023-05-03T12:03:54.748Z,44.48
2023-05-03T12:06:24.100Z,44.48
2023-05-03T12:08:52.436Z,42.61
2023-05-03T12:11:21.856Z,43.86
2023-05-03T12:13:58.391Z,42.04
2023-05-03T12:16:28.413Z,42.12
2023-05-03T12:19:03.098Z,42.81
2023-05-03T12:21:54.080Z,41.92
2023-05-03T12:24:28.709Z,43.54
2023-05-03T12:26:57.813Z,43.17
2023-05-03T12:29:26.216Z,41.86
2023-05-03T12:31:59.077Z,42.47
2023-05-03T12:37:04.451Z,41.44
2023-05-03T12:39:33.728Z,40.67
2023-05-03T12:44:35.330Z,40.65
2023-05-03T12:47:06.526Z,39.48
2023-05-03T12:49:39.022Z,42.57
2023-05-03T12:52:34.757Z,42.99
2023-05-03T12:54:56.194Z,42.25
2023-05-03T12:57:24.754Z,41.67
2023-05-03T13:00:01.598Z,43.56
2023-05-03T13:05:11.319Z,38.85
2023-05-03T13:07:43.931Z,42.18
2023-05-03T13:12:46.721Z,39.85
2023-05-03T13:15:14.658Z,36.00
2023-05-03T13:17:46.724Z,33.97
2023-05-03T13:20:15.118Z,34.77
2023-05-03T13:22:42.845Z,36.00
2023-05-03T13:25:10.797Z,36.06
2023-05-03T13:27:38.509Z,38.17
2023-05-03T13:30:07.591Z,38.60
2023-05-03T13:32:35.331Z,36.05
2023-05-03T13:35:05.324Z,36.59
2023-05-03T13:37:33.453Z,36.62
2023-05-03T13:40:01.455Z,36.87
2023-05-03T13:42:29.507Z,35.89
2023-05-03T13:44:57.264Z,37.00
2023-05-03T13:47:26.983Z,37.39
2023-05-03T13:49:57.360Z,38.10
2023-05-03T13:52:26.452Z,38.20
2023-05-03T13:54:54.504Z,38.85
2023-05-03T13:57:23.075Z,37.83
2023-05-03T13:59:51.734Z,37.97
2023-05-03T14:02:19.492Z,41.47
2023-05-03T14:04:47.668Z,40.22
2023-05-03T14:07:15.372Z,41.14
2023-05-03T14:09:44.519Z,40.97
2023-05-03T14:12:12.301Z,43.38
2023-05-03T14:14:39.987Z,41.78
2023-05-03T14:17:08.297Z,40.20
2023-05-03T14:19:37.010Z,41.23
2023-05-03T14:22:04.842Z,39.75
2023-05-03T14:24:32.596Z,40.87
2023-05-03T14:27:01.836Z,42.75
2023-05-03T14:29:29.645Z,42.97
2023-05-03T14:31:57.629Z,46.85
2023-05-03T14:34:25.370Z,48.48
2023-05-03T14:36:53.237Z,44.20
2023-05-03T14:39:21.003Z,44.30
2023-05-03T14:41:51.046Z,42.93
2023-05-03T14:44:20.613Z,40.14
2023-05-03T14:46:48.346Z,41.87
2023-05-03T14:49:17.572Z,43.60
2023-05-03T14:51:45.474Z,41.69
2023-05-03T14:54:13.221Z,41.42
2023-05-03T14:56:40.978Z,42.34
2023-05-03T14:59:09.132Z,44.09
2023-05-03T15:01:38.415Z,46.49
2023-05-03T15:04:07.679Z,46.75
2023-05-03T15:06:38.985Z,43.97
2023-05-03T15:09:08.611Z,46.87
2023-05-03T15:11:36.381Z,50.49
2023-05-03T15:14:04.082Z,54.40
2023-05-03T15:16:31.917Z,56.92
2023-05-03T15:19:01.596Z,52.07
2023-05-03T15:21:29.503Z,53.04
2023-05-03T15:23:58.063Z,61.38
2023-05-03T15:26:25.804Z,57.08
2023-05-03T15:28:53.533Z,52.07
2023-05-03T15:31:21.771Z,53.97
2023-05-03T15:33:49.675Z,65.56
2023-05-03T15:36:18.746Z,53.96
2023-05-03T15:38:46.768Z,52.15
2023-05-03T15:41:14.544Z,47.18
2023-05-03T15:43:42.626Z,45.21
2023-05-03T15:46:10.523Z,46.61
2023-05-03T15:48:38.317Z,46.67
2023-05-03T15:51:06.220Z,48.18
2023-05-03T15:53:35.363Z,47.55
2023-05-03T15:56:03.996Z,43.87
2023-05-03T15:58:31.925Z,43.41
2023-05-03T16:01:00.240Z,45.31
2023-05-03T16:03:28.732Z,48.30
2023-05-03T16:05:56.688Z,53.72
2023-05-03T16:08:24.497Z,47.99
2023-05-03T16:10:53.809Z,43.46
2023-05-03T16:13:22.013Z,45.77
2023-05-03T16:15:52.471Z,44.79
2023-05-03T16:18:20.469Z,44.59
2023-05-03T16:20:48.205Z,43.93
2023-05-03T16:23:15.977Z,46.81
2023-05-03T16:25:43.852Z,47.23
2023-05-03T16:28:12.968Z,44.17
2023-05-03T16:30:41.077Z,44.85
2023-05-03T16:33:08.958Z,43.40
2023-05-03T16:35:36.746Z,45.62
2023-05-03T16:38:04.625Z,42.21
2023-05-03T16:40:32.768Z,45.17
2023-05-03T16:43:00.516Z,46.82
2023-05-03T16:45:29.746Z,46.11
2023-05-03T16:47:57.822Z,47.34
2023-05-03T16:50:25.883Z,45.83
2023-05-03T16:52:53.647Z,48.18
2023-05-03T16:55:23.335Z,50.51
2023-05-03T16:57:51.084Z,50.47
2023-05-03T17:00:20.885Z,47.32
2023-05-03T17:02:50.070Z,48.49
2023-05-03T17:05:19.980Z,52.13
2023-05-03T17:07:47.689Z,52.36
2023-05-03T17:10:15.721Z,50.85
2023-05-03T17:12:43.509Z,52.53
2023-05-03T17:15:12.616Z,53.76
2023-05-03T17:17:40.436Z,55.27
2023-05-03T17:20:12.842Z,53.41
2023-05-03T17:22:40.604Z,51.47
2023-05-03T17:25:09.694Z,52.48
2023-05-03T17:27:38.325Z,57.48
2023-05-03T17:30:08.549Z,60.31
2023-05-03T17:32:36.605Z,57.86
2023-05-03T17:35:04.620Z,53.46
2023-05-03T17:37:33.726Z,57.30
2023-05-03T17:40:01.566Z,59.45
2023-05-03T17:42:29.414Z,61.91
2023-05-03T17:44:57.954Z,63.22
2023-05-03T17:47:25.804Z,62.72
2023-05-03T17:49:53.941Z,69.55
2023-05-03T17:52:22.017Z,68.17
2023-05-03T17:54:52.362Z,71.66
2023-05-03T17:57:21.472Z,69.88
2023-05-03T17:59:49.217Z,71.00
2023-05-03T18:02:17.857Z,71.50
2023-05-03T18:04:45.607Z,72.81
2023-05-03T18:07:13.412Z,77.81
2023-05-03T18:09:41.159Z,81.39
2023-05-03T18:12:10.267Z,79.98
2023-05-03T18:14:38.060Z,79.81
2023-05-03T18:17:07.425Z,84.15
2023-05-03T18:19:35.157Z,82.56
2023-05-03T18:22:03.027Z,82.77
2023-05-03T18:24:30.703Z,83.84
2023-05-03T18:26:58.454Z,91.00
2023-05-03T18:29:28.279Z,89.83
2023-05-03T18:31:57.474Z,91.20
2023-05-03T18:34:26.777Z,91.53
2023-05-03T18:36:54.566Z,99.17
2023-05-03T18:39:22.887Z,100.00
2023-05-03T18:41:50.675Z,96.26
2023-05-03T18:44:18.384Z,100.00
2023-05-03T18:46:47.557Z,100.00
2023-05-03T18:49:15.275Z,100.00
2023-05-03T18:51:43.021Z,100.00
2023-05-03T18:54:10.790Z,100.00
2023-05-03T18:56:38.501Z,100.00
2023-05-03T18:59:06.386Z,100.00
2023-05-03T19:01:34.527Z,100.00
2023-05-03T19:04:04.485Z,100.00
2023-05-03T19:06:32.272Z,100.00
2023-05-03T19:09:00.018Z,100.00
2023-05-03T19:11:27.760Z,100.00
2023-05-03T19:13:55.497Z,100.00
2023-05-03T19:16:23.305Z,100.00
2023-05-03T19:18:51.248Z,100.00
2023-05-03T19:21:20.568Z,100.00
2023-05-03T19:23:48.355Z,100.00
2023-05-03T19:26:16.070Z,100.00
2023-05-03T19:28:44.233Z,100.00
2023-05-03T19:31:12.035Z,100.00
2023-05-03T19:33:39.819Z,100.00
2023-05-03T19:36:07.886Z,100.00
2023-05-03T19:38:37.031Z,100.00
2023-05-03T19:41:07.946Z,100.00
2023-05-03T19:43:35.673Z,100.00
2023-05-03T19:46:04.151Z,100.00
2023-05-03T19:48:32.182Z,100.00
2023-05-03T19:51:00.001Z,100.00
2023-05-03T19:53:27.975Z,100.00
2023-05-03T19:55:58.678Z,100.00
2023-05-03T19:58:27.282Z,100.00
2023-05-03T20:00:55.631Z,100.00
2023-05-03T20:03:24.558Z,100.00
2023-05-03T20:05:52.679Z,100.00
2023-05-03T20:08:20.478Z,100.00
2023-05-03T20:10:49.805Z,100.00
2023-05-03T20:13:19.056Z,100.00
2023-05-03T20:15:48.017Z,100.00
2023-05-03T20:18:15.913Z,100.00
2023-05-03T20:20:43.634Z,100.00
2023-05-03T20:23:11.915Z,100.00
2023-05-03T20:25:39.718Z,100.00
2023-05-03T20:28:07.974Z,100.00
2023-05-03T20:30:37.203Z,100.00
2023-05-03T20:33:05.395Z,100.00
2023-05-03T20:35:33.178Z,100.00
2023-05-03T20:38:00.967Z,100.00
2023-05-03T20:40:28.735Z,100.00
2023-05-03T20:42:56.429Z,100.00
2023-05-03T20:45:24.241Z,100.00
2023-05-03T20:47:53.434Z,100.00
2023-05-03T20:50:21.485Z,100.00
2023-05-03T20:52:49.200Z,100.00
2023-05-03T20:55:17.082Z,100.00
2023-05-03T20:57:44.854Z,100.00
2023-05-03T21:00:15.749Z,100.00
2023-05-03T21:02:44.004Z,100.00
2023-05-03T21:05:13.261Z,100.00
2023-05-03T21:07:40.992Z,100.00
2023-05-03T21:10:10.038Z,100.00
2023-05-03T21:12:37.806Z,100.00
2023-05-03T21:15:06.613Z,100.00
2023-05-03T21:17:34.388Z,100.00
2023-05-03T21:20:02.428Z,100.00
2023-05-03T21:22:32.227Z,100.00
2023-05-03T21:25:00.365Z,100.00
2023-05-03T21:27:28.137Z,100.00
2023-05-03T21:29:55.877Z,100.00
2023-05-03T21:32:23.723Z,100.00
2023-05-03T21:34:51.607Z,100.00
2023-05-03T21:37:19.352Z,100.00
2023-05-03T21:40:00.411Z,100.00
2023-05-03T21:42:29.590Z,100.00
2023-05-03T21:44:57.664Z,100.00
2023-05-03T21:47:27.592Z,100.00
2023-05-03T21:49:55.569Z,100.00
2023-05-03T21:52:23.329Z,100.00
2023-05-03T21:54:53.247Z,100.00
2023-05-03T21:57:21.078Z,100.00
2023-05-03T21:59:49.399Z,100.00
2023-05-03T22:02:17.192Z,100.00
2023-05-03T22:04:45.315Z,100.00
2023-05-03T22:07:13.199Z,100.00
2023-05-03T22:09:40.895Z,100.00
2023-05-03T22:12:22.346Z,100.00
2023-05-03T22:14:51.554Z,100.00
2023-05-03T22:17:19.383Z,100.00
2023-05-03T22:19:47.124Z,100.00
2023-05-03T22:22:14.869Z,100.00
2023-05-03T22:24:42.572Z,100.00
2023-05-03T22:27:11.702Z,100.00
2023-05-03T22:29:39.434Z,100.00
2023-05-03T22:32:07.999Z,100.00
2023-05-03T22:34:36.222Z,100.00
2023-05-03T22:37:04.211Z,100.00
2023-05-03T22:39:32.224Z,100.00
2023-05-03T22:42:00.067Z,100.00
2023-05-03T22:44:29.168Z,100.00
2023-05-03T22:46:56.949Z,100.00
2023-05-03T22:49:24.983Z,100.00
2023-05-03T22:51:52.731Z,100.00
2023-05-03T22:54:21.761Z,100.00
2023-05-03T22:56:49.555Z,100.00
2023-05-03T22:59:17.263Z,100.00
2023-05-03T23:01:49.401Z,100.00
2023-05-03T23:04:17.512Z,100.00
2023-05-03T23:06:45.503Z,100.00
2023-05-03T23:09:13.448Z,100.00
2023-05-03T23:11:41.202Z,100.00
2023-05-03T23:14:08.929Z,100.00
2023-05-03T23:16:37.066Z,100.00
2023-05-03T23:19:06.145Z,100.00
2023-05-03T23:21:33.865Z,100.00
2023-05-03T23:24:01.616Z,100.00
2023-05-03T23:26:29.716Z,100.00
2023-05-03T23:28:57.852Z,100.00
2023-05-03T23:31:25.929Z,100.00
2023-05-03T23:33:54.747Z,100.00
2023-05-03T23:36:23.855Z,100.00
2023-05-03T23:38:52.033Z,100.00
2023-05-03T23:41:19.763Z,100.00
2023-05-03T23:43:47.477Z,100.00
2023-05-03T23:46:15.319Z,100.00
2023-05-03T23:48:43.091Z,100.00
2023-05-03T23:51:10.927Z,100.00
2023-05-03T23:53:40.010Z,100.00
2023-05-03T23:56:08.209Z,100.00
2023-05-03T23:58:36.245Z,100.00
